INFORMAÇÕES METEOROLÓGICAS
METAR FOR SBMG
ADDS - METARS form results

(0150 UTC 25 April 2019)
Data provider http://aviationweather.gov/metar/data/
 
METAR text: SBMG 250100Z 13005KT CAVOK 24/19 Q1017
Conditions at: SBMG (MARINGA , BR) observed 0100 UTC 25 April 2019
Temperature: 24.0°C (75°F)
Dewpoint: 19.0°C (66°F) [RH = 74%]
Pressure (altimeter): 30.03 inches Hg (1017.0 mb)
Winds: from the SE (130 degrees) at 6 MPH (5 knots; 2.6 m/s)
Visibility: 6 or more miles (10+ km)
Ceiling: ceiling and visibility are OK
Clouds: unknown
Weather: no significant weather observed at this time

 MAPA DO AEROPORTO

 INFORMAÇÕES DA PISTA
Pista 9 Tamanho da pista 6890 ft Largura da pista 148 ft
Elevação da pista 0 ft Ranhura da pista 0 ft Proa da pista 0
Pista 27 Tamanho da pista 6890 ft Largura da pista 148 ft
Elevação da pista 0 ft Ranhura da pista 0 ft Proa da pista 0

 FREQUÊNCIAS DO AEROPORTO
Tipo AFIS Nome RDO Frequência 131.95 MHZ

 AUXÍLIOS DE NAVEGAÇÃO PRÓXIMOS AO AEROPORTO





Powered by Virtual Airlines Manager [v2.6.2]